Masset current weather conditions

sailwx.info

Wind from 220 at 6 knots

Air temperature 5.0° C
Visibility: greater than 8.7 NM
Dewpoint 1.0° C
Present weather: Light rain showers.

Last reported at 2017-Mar-26 01:00 UTC.
Time now 2017-Mar-26 05:29 UTC

Location: N 54°02' W 132°08'.
View on Google Maps.

See reports from other nearby stations

  
Tides and Currents Weather Stations Pressure Air Temp Water Temp Dewpoint Dewpoint Depression Visibility Wind Speed Wind Dir Waves Ship Positions
date/time (UTC)wind fromknots sea level pressurealtimeterstation pressurevisibilityair tempwater tempwave heightnotes
2017-Mar-26 01:00 220 6 8.7 5.0 Light rain showers.
2017-Mar-26 00:54 200 6 8.7 5.0 Light rain showers.
2017-Mar-26 00:50 200 6 13.0 5.0
2017-Mar-26 00:00 150 13 gusting 20 13.0 6.0
2017-Mar-25 23:00 140 8 gusting 15 13.0 6.0
2017-Mar-25 22:00 340 5 13.0 6.0
2017-Mar-25 21:52 330 4 13.0 6.0
2017-Mar-25 21:24 190 11 gusting 17 13.0 7.0 Light small hail/snow pellets.
2017-Mar-25 21:00 170 9 gusting 14 13.0 8.0
2017-Mar-25 20:00 170 6 13.0 6.0
2017-Mar-25 19:00 180 7 13.0 6.0
2017-Mar-25 18:00 200 6 13.0 5.0
2017-Mar-25 17:00 190 6 13.0 4.0
2017-Mar-25 16:00 190 6 13.0 3.0
2017-Mar-25 15:11 190 4 13.0 2.0 Light rain showers.
2017-Mar-25 15:00 190 6 13.0 2.0 Light rain showers.
2017-Mar-25 14:00 190 6 13.0 2.0 Light rain showers.
2017-Mar-25 01:00 160 9 1.3 7.0 Light drizzle. Mist.
2017-Mar-25 00:42 150 9 1.7 7.0 Light rain showers. Mist.
2017-Mar-25 00:07 150 13 gusting 20 10.4 7.0
2017-Mar-25 00:00 150 12 gusting 21 1.3 7.0 Light rain showers. Mist.
2017-Mar-24 23:32 140 9 gusting 20 1.7 7.0 Light rain showers. Mist.
2017-Mar-24 23:00 150 13 gusting 20 13.0 7.0 Light rain showers.
2017-Mar-24 22:00 150 9 gusting 19 13.0 7.0 Light rain showers.
2017-Mar-24 21:00 140 9 gusting 15 13.0 6.0 Light rain showers.
2017-Mar-24 20:00 140 12 gusting 20 13.0 6.0 Light rain showers.
2017-Mar-24 19:00 150 13 gusting 21 13.0 7.0 Light rain showers.
2017-Mar-24 18:38 140 17 gusting 27 13.0 7.0 Light rain showers.
2017-Mar-24 18:29 150 13 gusting 26 13.0 7.0 Light rain showers.
2017-Mar-24 18:12 150 17 gusting 26 13.0 7.0 Light drizzle.
2017-Mar-24 18:00 150 12 gusting 19 13.0 7.0 Light rain showers.
2017-Mar-24 17:52 160 13 gusting 20 4.3 7.0 Light rain. Mist.
2017-Mar-24 17:00 110 6 1.7 6.0 Light rain. Mist.
2017-Mar-24 16:00 150 6 gusting 14 13.0 6.0 Light rain.
2017-Mar-24 15:40 140 11 gusting 17 13.0 6.0 Light rain.
2017-Mar-24 15:26 140 8 gusting 14 1.7 6.0 Light rain. Mist.
2017-Mar-24 15:00 150 8 gusting 15 10.4 6.0 Light drizzle.
2017-Mar-24 14:49 150 11 1.7 6.0 Light drizzle. Mist.
2017-Mar-24 14:40 140 9 gusting 17 1.1 6.0 Light drizzle. Mist.
2017-Mar-24 14:32 140 8 gusting 15 8.7 6.0 Light drizzle.
2017-Mar-24 14:25 140 9 gusting 15 1.3 6.0 Light drizzle. Mist.
2017-Mar-24 14:00 140 9 13.0 6.0 Light drizzle.